Time;durP1;ratioP1;P1;durP2;ratioP2;P2;SDS_P1;SDS_P2;PMS_P1;PMS_P2;Temp;Humidity;BMP_temperature;BMP_pressure;BME280_temperature;BME280_humidity;BME280_pressure;Samples;Min_cycle;Max_cycle;Signal;HPM_P1;HPM_P2
2022/04/10 00:01:07;;;;;;;6.67;4.30;;;;;;;9.47;84.83;97949.38;1722805;82;21050;-79
2022/04/10 00:03:34;;;;;;;6.12;3.92;;;;;;;9.43;85.56;97956.89;1726662;82;21036;-78
2022/04/10 00:06:01;;;;;;;6.58;4.15;;;;;;;9.40;85.23;97947.95;1723197;82;21000;-78
2022/04/10 00:08:27;;;;;;;6.62;4.15;;;;;;;9.38;85.19;97941.98;1725115;82;21571;-79
2022/04/10 00:10:54;;;;;;;5.67;3.80;;;;;;;9.36;84.89;97944.16;1723787;81;21046;-78
2022/04/10 00:13:21;;;;;;;7.10;4.10;;;;;;;9.38;84.60;97945.41;1729700;82;21015;-79
2022/04/10 00:15:47;;;;;;;5.53;4.22;;;;;;;9.37;84.64;97945.03;1721871;81;21024;-79
2022/04/10 00:18:14;;;;;;;7.22;4.42;;;;;;;9.33;84.93;97944.73;1724115;82;21079;-78
2022/04/10 00:20:41;;;;;;;6.62;4.67;;;;;;;9.30;84.99;97946.16;1723174;81;21036;-78
2022/04/10 00:23:09;;;;;;;5.67;4.15;;;;;;;9.25;85.10;97937.27;1729446;82;21065;-79
2022/04/10 00:25:35;;;;;;;5.65;3.92;;;;;;;9.25;84.47;97938.56;1728407;81;20987;-79
2022/04/10 00:28:02;;;;;;;6.40;4.05;;;;;;;9.20;85.10;97926.67;1712121;82;21059;-77
2022/04/10 00:30:29;;;;;;;6.28;4.33;;;;;;;9.15;84.81;97920.34;1722661;82;21003;-79
2022/04/10 00:32:56;;;;;;;7.10;4.22;;;;;;;9.14;84.91;97941.55;1721032;82;21551;-78
2022/04/10 00:35:23;;;;;;;10.48;4.62;;;;;;;9.09;85.55;97933.55;1731424;82;21071;-78
2022/04/10 00:37:49;;;;;;;7.10;4.37;;;;;;;9.12;84.84;97946.41;1718856;82;20979;-78
2022/04/10 00:40:16;;;;;;;9.03;4.20;;;;;;;9.13;84.65;97945.48;1728963;82;21028;-78
2022/04/10 00:42:49;;;;;;;5.87;3.72;;;;;;;9.06;84.96;97955.25;1722322;82;21332;-78
2022/04/10 00:45:17;;;;;;;9.25;4.40;;;;;;;9.10;84.27;97953.39;1728173;82;21013;-78
2022/04/10 00:47:45;;;;;;;5.83;3.95;;;;;;;9.07;84.87;97957.38;1719977;82;21485;-78
2022/04/10 00:50:14;;;;;;;6.22;4.17;;;;;;;9.07;84.63;97958.25;1721613;83;21009;-79
2022/04/10 00:52:43;;;;;;;7.87;3.85;;;;;;;9.06;84.69;97956.55;1724768;82;21045;-79
2022/04/10 00:55:10;;;;;;;5.33;3.67;;;;;;;9.08;84.21;97955.20;1727816;82;22204;-79
2022/04/10 00:57:37;;;;;;;5.70;4.20;;;;;;;9.06;84.26;97964.78;1726941;82;21029;-77
2022/04/10 01:00:11;;;;;;;6.47;4.20;;;;;;;9.01;84.88;97961.50;1737197;82;21021;-78
2022/04/10 01:02:38;;;;;;;;;;;;;;;8.98;84.63;97961.63;1731638;82;21025;-76
2022/04/10 01:05:06;;;;;;;5.72;4.28;;;;;;;8.92;84.55;97959.64;1730626;82;20419;-78
2022/04/10 01:07:34;;;;;;;5.42;3.95;;;;;;;8.88;84.31;97956.77;1731179;82;21345;-79
2022/04/10 01:10:04;;;;;;;7.00;4.17;;;;;;;8.84;84.80;97962.13;1722813;82;21061;-79
2022/04/10 01:12:33;;;;;;;7.10;4.30;;;;;;;8.87;83.57;97946.45;1732376;82;21086;-78
2022/04/10 01:15:02;;;;;;;7.72;4.90;;;;;;;8.82;84.01;97954.41;1720707;82;21017;-79
2022/04/10 01:17:31;;;;;;;6.85;4.37;;;;;;;8.79;84.40;97951.08;1734710;82;21065;-78
2022/04/10 01:19:59;;;;;;;6.90;4.42;;;;;;;8.73;84.72;97965.09;1722662;82;21578;-78
2022/04/10 01:22:32;;;;;;;6.87;4.50;;;;;;;8.74;84.37;97960.32;1737121;82;21027;-78
2022/04/10 01:25:07;;;;;;;7.05;4.37;;;;;;;8.70;84.60;97971.23;1719103;82;21001;-78
2022/04/10 01:27:39;;;;;;;7.25;4.05;;;;;;;8.66;84.87;97968.36;1701631;82;21100;-79
2022/04/10 01:30:10;;;;;;;8.10;5.28;;;;;;;8.62;85.55;97976.30;1722669;82;21005;-77
2022/04/10 01:32:37;;;;;;;8.73;4.95;;;;;;;8.60;85.60;97976.81;1724580;82;21059;-78
2022/04/10 01:35:06;;;;;;;7.90;5.08;;;;;;;8.54;85.79;97975.27;1701293;82;21056;-78
2022/04/10 01:37:36;;;;;;;6.72;4.65;;;;;;;8.55;84.87;97974.36;1721881;82;21012;-79
2022/04/10 01:40:05;;;;;;;6.05;4.45;;;;;;;8.50;85.53;97977.12;1718500;82;21065;-79
2022/04/10 01:42:32;;;;;;;6.72;4.53;;;;;;;8.50;85.35;97974.53;1721604;83;21000;-80
2022/04/10 01:44:59;;;;;;;6.75;4.62;;;;;;;8.50;86.24;97971.94;1719797;82;20990;-79
2022/04/10 01:47:28;;;;;;;7.72;4.65;;;;;;;8.52;85.78;97968.84;1721424;81;21008;-79
2022/04/10 01:49:54;;;;;;;7.35;4.53;;;;;;;8.56;85.49;97972.18;1720262;82;21540;-79
2022/04/10 01:52:21;;;;;;;7.87;4.65;;;;;;;8.60;84.68;97969.88;1720959;81;21044;-79
2022/04/10 01:54:48;;;;;;;7.47;4.40;;;;;;;8.64;85.54;97972.75;1734818;82;21033;-79
2022/04/10 01:57:16;;;;;;;6.45;4.47;;;;;;;8.70;86.58;97971.70;1721448;82;21026;-78
2022/04/10 01:59:42;;;;;;;11.88;4.55;;;;;;;8.78;85.83;97966.25;1722576;81;21021;-77
2022/04/10 02:02:09;;;;;;;6.40;4.15;;;;;;;8.82;85.45;97968.66;1730077;81;21480;-78
2022/04/10 02:04:36;;;;;;;6.35;4.00;;;;;;;8.83;84.52;97965.16;1741897;82;21083;-78
2022/04/10 02:07:04;;;;;;;7.35;3.92;;;;;;;8.87;84.63;97960.28;1727680;82;21049;-79
2022/04/10 02:09:31;;;;;;;7.12;4.58;;;;;;;8.90;85.74;97960.61;1744725;82;21027;-79
2022/04/10 02:11:58;;;;;;;7.30;3.83;;;;;;;8.95;84.97;97955.66;1731455;81;21456;-78
2022/04/10 02:14:25;;;;;;;5.25;2.60;;;;;;;9.01;84.46;97957.16;1727370;82;21025;-80
2022/04/10 02:16:52;;;;;;;5.17;3.08;;;;;;;9.01;84.13;97952.43;1704209;83;21001;-80
2022/04/10 02:19:18;;;;;;;4.37;2.30;;;;;;;9.04;84.41;97956.22;1734031;82;21548;-78
2022/04/10 02:21:45;;;;;;;4.58;2.72;;;;;;;9.00;84.42;97948.16;1734969;82;20976;-79
2022/04/10 02:24:13;;;;;;;4.05;2.40;;;;;;;8.95;84.10;97950.48;1732352;81;21008;-85
2022/04/10 02:26:39;;;;;;;3.58;2.15;;;;;;;8.91;83.77;97945.44;1745379;81;21051;-85
2022/04/10 02:29:06;;;;;;;3.52;2.10;;;;;;;8.81;84.28;97931.97;1742503;82;21045;-78
2022/04/10 02:31:34;;;;;;;4.42;2.30;;;;;;;8.88;82.96;97947.70;1721697;82;20980;-79
2022/04/10 02:34:02;;;;;;;4.55;2.30;;;;;;;8.85;84.46;97945.20;1742299;82;21039;-79
2022/04/10 02:36:29;;;;;;;4.40;2.50;;;;;;;8.88;84.03;97945.11;1742241;82;21072;-79
2022/04/10 02:38:56;;;;;;;5.03;3.08;;;;;;;8.86;85.56;97944.78;1721647;82;21020;-79
2022/04/10 02:41:23;;;;;;;4.30;2.70;;;;;;;8.87;85.79;97947.75;1742379;82;21512;-79
2022/04/10 02:43:51;;;;;;;3.42;2.17;;;;;;;8.84;84.66;97939.64;1742745;82;21460;-79
2022/04/10 02:46:18;;;;;;;2.52;1.30;;;;;;;8.85;85.35;97952.98;1742737;82;21000;-79
2022/04/10 02:48:45;;;;;;;3.27;1.20;;;;;;;8.83;84.41;97958.67;1742865;82;21087;-79
2022/04/10 02:51:13;;;;;;;4.22;1.10;;;;;;;8.82;84.11;97962.19;1742676;82;21487;-80
2022/04/10 02:53:40;;;;;;;1.72;1.10;;;;;;;8.80;83.90;97961.85;1742376;82;20984;-78
2022/04/10 02:56:07;;;;;;;2.95;1.12;;;;;;;8.78;83.42;97968.38;1742178;82;21103;-78
2022/04/10 02:58:34;;;;;;;3.00;1.17;;;;;;;8.72;82.91;97968.60;1742430;82;21555;-79
2022/04/10 03:01:03;;;;;;;1.02;0.85;;;;;;;8.73;82.98;97967.69;1742459;82;21107;-80
2022/04/10 03:03:31;;;;;;;1.92;1.27;;;;;;;8.75;83.17;97965.45;1721526;82;21861;-79
2022/04/10 03:05:59;;;;;;;5.12;1.82;;;;;;;8.74;82.77;97961.62;1742271;82;21111;-79
2022/04/10 03:08:26;;;;;;;3.65;1.87;;;;;;;8.73;83.06;97972.87;1742088;82;21540;-78
2022/04/10 03:10:53;;;;;;;3.40;1.37;;;;;;;8.73;82.77;97975.45;1742082;81;21087;-77
2022/04/10 03:13:20;;;;;;;3.50;1.22;;;;;;;8.68;82.51;97983.86;1742113;82;21024;-78
2022/04/10 03:15:47;;;;;;;3.60;1.50;;;;;;;8.65;82.33;97975.72;1742424;82;21049;-79
2022/04/10 03:18:14;;;;;;;2.02;1.17;;;;;;;8.58;82.33;97988.97;1742583;82;21517;-79
2022/04/10 03:20:40;;;;;;;2.90;1.35;;;;;;;8.58;82.66;97985.92;1742532;82;21083;-79
2022/04/10 03:23:10;;;;;;;3.60;1.20;;;;;;;8.58;82.52;97990.27;1742443;81;21027;-79
2022/04/10 03:25:37;;;;;;;2.52;1.10;;;;;;;8.52;82.31;97994.75;1742363;82;21531;-80
2022/04/10 03:28:04;;;;;;;3.30;1.30;;;;;;;8.49;82.31;98000.02;1742375;82;21087;-80
2022/04/10 03:30:31;;;;;;;2.67;1.15;;;;;;;8.45;82.36;98004.07;1742521;81;20988;-79
2022/04/10 03:32:58;;;;;;;2.35;1.35;;;;;;;8.40;82.37;98009.38;1742518;82;21040;-80
2022/04/10 03:35:25;;;;;;;1.70;1.30;;;;;;;8.34;81.98;98003.12;1721617;82;20980;-79
2022/04/10 03:37:53;;;;;;;2.60;1.60;;;;;;;8.27;82.28;98008.09;1732931;81;21048;-79
2022/04/10 03:40:19;;;;;;;4.37;1.65;;;;;;;8.21;82.00;98003.95;1710024;83;21568;-78
2022/04/10 03:42:47;;;;;;;4.78;1.35;;;;;;;8.19;82.12;98017.86;1709897;83;21108;-79
2022/04/10 03:45:14;;;;;;;3.77;1.40;;;;;;;8.08;81.82;98017.77;1709983;83;21044;-80
2022/04/10 03:47:41;;;;;;;3.58;2.15;;;;;;;8.05;82.24;98024.31;1710154;83;20988;-79
2022/04/10 03:50:08;;;;;;;3.47;1.50;;;;;;;8.03;82.59;98027.41;1710017;83;21024;-79
2022/04/10 03:52:35;;;;;;;5.62;1.42;;;;;;;8.05;82.71;98028.66;1709949;84;21027;-81
2022/04/10 03:55:02;;;;;;;1.82;1.10;;;;;;;8.05;82.33;98029.95;1709982;83;21044;-79
2022/04/10 03:57:29;;;;;;;4.55;1.30;;;;;;;8.05;82.54;98034.67;1710028;84;21008;-79
2022/04/10 03:59:57;;;;;;;2.35;1.30;;;;;;;8.08;82.47;98032.45;1710281;83;21084;-79
2022/04/10 04:02:24;;;;;;;2.80;1.30;;;;;;;8.09;81.68;98025.91;1710110;82;21099;-79
2022/04/10 04:04:51;;;;;;;3.58;1.57;;;;;;;8.01;82.01;98034.37;1701223;84;21084;-80
2022/04/10 04:07:19;;;;;;;3.85;1.57;;;;;;;8.02;82.09;98030.03;1709996;83;21001;-81
2022/04/10 04:09:46;;;;;;;5.20;2.02;;;;;;;8.03;81.75;98029.16;1708466;82;20972;-79
2022/04/10 04:12:13;;;;;;;5.05;1.98;;;;;;;7.87;81.86;98030.09;1705823;82;21347;-80
2022/04/10 04:14:41;;;;;;;4.75;2.20;;;;;;;7.82;82.41;98039.72;1704074;82;21030;-80
2022/04/10 04:17:08;;;;;;;6.08;2.45;;;;;;;7.83;82.25;98048.73;1707370;82;22092;-80
2022/04/10 04:19:36;;;;;;;2.75;1.60;;;;;;;7.85;82.88;98049.53;1704922;82;20982;-78
2022/04/10 04:22:04;;;;;;;3.37;1.32;;;;;;;7.85;81.88;98053.87;1704182;82;21058;-79
2022/04/10 04:24:33;;;;;;;3.37;1.67;;;;;;;7.82;81.65;98063.00;1704875;82;21022;-79
2022/04/10 04:26:59;;;;;;;2.00;1.15;;;;;;;7.81;82.56;98069.09;1704770;82;21062;-78
2022/04/10 04:29:27;;;;;;;2.60;1.30;;;;;;;7.81;82.84;98072.52;1704796;82;21561;-79
2022/04/10 04:31:53;;;;;;;3.40;1.50;;;;;;;7.82;83.04;98074.65;1705788;82;21083;-78
2022/04/10 04:34:21;;;;;;;3.40;1.42;;;;;;;7.84;83.23;98085.80;1703700;82;21034;-79
2022/04/10 04:36:48;;;;;;;2.67;1.37;;;;;;;7.81;83.09;98098.39;1705838;82;21601;-79
2022/04/10 04:39:15;;;;;;;6.37;1.62;;;;;;;7.80;83.48;98107.48;1723080;81;21013;-78
2022/04/10 04:41:42;;;;;;;2.72;1.70;;;;;;;7.75;83.04;98111.06;1729396;81;21081;-79
2022/04/10 04:44:09;;;;;;;2.95;1.60;;;;;;;7.76;83.09;98112.77;1729261;81;21489;-79
2022/04/10 04:46:36;;;;;;;2.87;1.52;;;;;;;7.73;82.86;98113.30;1733423;81;20977;-79
2022/04/10 04:49:04;;;;;;;7.45;1.67;;;;;;;7.72;83.56;98121.97;1729216;81;21051;-78
2022/04/10 04:51:35;;;;;;;3.83;1.67;;;;;;;7.73;83.95;98116.73;1729074;81;21535;-79
2022/04/10 04:54:04;;;;;;;5.50;1.82;;;;;;;7.74;84.47;98123.61;1729335;81;21012;-79
2022/04/10 04:56:31;;;;;;;5.10;1.52;;;;;;;7.76;82.54;98127.00;1729370;81;21068;-79
2022/04/10 04:58:57;;;;;;;4.40;1.67;;;;;;;7.72;81.56;98134.91;1729359;82;21033;-79
2022/04/10 05:01:24;;;;;;;3.85;1.80;;;;;;;7.66;83.94;98141.09;1729137;81;21096;-79
2022/04/10 05:03:51;;;;;;;2.75;1.47;;;;;;;7.67;82.87;98141.48;1729033;82;21595;-78
2022/04/10 05:06:18;;;;;;;2.30;1.37;;;;;;;7.64;83.27;98153.66;1729118;81;21073;-79
2022/04/10 05:08:50;;;;;;;3.33;1.57;;;;;;;7.55;83.88;98148.30;1728917;81;20997;-79
2022/04/10 05:11:14;;;;;;;2.77;1.62;;;;;;;7.57;84.00;98159.45;1749516;81;21004;-78
2022/04/10 05:13:42;;;;;;;3.92;1.67;;;;;;;7.53;85.24;98163.02;1728997;83;21053;-78
2022/04/10 05:16:10;;;;;;;4.12;1.70;;;;;;;7.53;84.02;98169.03;1732559;81;21000;-79
2022/04/10 05:18:38;;;;;;;6.25;2.30;;;;;;;7.53;84.71;98161.27;1738409;81;21046;-79
2022/04/10 05:21:05;;;;;;;2.22;1.60;;;;;;;7.51;84.69;98164.34;1742281;81;21051;-79
2022/04/10 05:23:31;;;;;;;3.65;1.77;;;;;;;7.53;85.56;98165.61;1702570;82;20997;-79
2022/04/10 05:26:06;;;;;;;3.65;1.70;;;;;;;7.57;85.55;98172.39;1728415;82;21079;-80
2022/04/10 05:28:34;;;;;;;3.22;1.70;;;;;;;7.61;85.50;98175.29;1729102;81;21020;-79
2022/04/10 05:31:03;;;;;;;2.62;1.20;;;;;;;7.67;86.28;98183.33;1729150;81;21016;-79
2022/04/10 05:33:35;;;;;;;3.65;1.60;;;;;;;7.68;84.00;98184.59;1728943;81;21482;-78
2022/04/10 05:36:02;;;;;;;4.30;1.40;;;;;;;7.65;83.86;98196.75;1729212;81;21001;-80
2022/04/10 05:38:30;;;;;;;3.58;1.42;;;;;;;7.61;84.74;98194.69;1723109;81;21136;-79
2022/04/10 05:40:58;;;;;;;3.33;1.40;;;;;;;7.61;84.43;98202.91;1711800;83;21005;-79
2022/04/10 05:43:26;;;;;;;2.45;1.47;;;;;;;7.52;84.49;98205.28;1726134;82;21029;-78
2022/04/10 05:45:54;;;;;;;3.05;1.60;;;;;;;7.49;84.65;98204.08;1711843;82;21026;-79
2022/04/10 05:48:22;;;;;;;4.72;1.60;;;;;;;7.49;85.12;98199.75;1711721;82;21132;-79
2022/04/10 05:50:49;;;;;;;3.52;1.75;;;;;;;7.46;83.74;98203.73;1714126;82;21554;-79
2022/04/10 05:53:16;;;;;;;2.87;0.90;;;;;;;7.36;84.38;98217.34;1711049;82;21032;-79
2022/04/10 05:55:43;;;;;;;2.12;0.80;;;;;;;7.29;82.42;98209.33;1712884;82;21030;-79
2022/04/10 05:58:12;;;;;;;1.75;1.05;;;;;;;7.14;82.00;98214.47;1703602;82;21003;-79
2022/04/10 06:00:39;;;;;;;4.28;0.70;;;;;;;7.08;82.03;98214.62;1708573;83;21009;-79
2022/04/10 06:03:10;;;;;;;0.55;0.55;;;;;;;7.03;82.04;98218.20;1692081;83;21542;-79
2022/04/10 06:05:39;;;;;;;1.00;0.90;;;;;;;6.95;82.01;98216.64;1705675;82;21069;-79
2022/04/10 06:08:08;;;;;;;2.00;1.00;;;;;;;6.86;82.23;98214.72;1703065;82;21003;-78
2022/04/10 06:10:35;;;;;;;1.20;0.65;;;;;;;6.81;82.64;98214.84;1703773;83;21025;-81
2022/04/10 06:13:09;;;;;;;0.75;0.50;;;;;;;6.78;82.21;98212.32;1718433;83;22094;-81
2022/04/10 06:15:38;;;;;;;0.82;0.60;;;;;;;6.77;82.51;98220.97;1716093;82;21169;-79
2022/04/10 06:18:07;;;;;;;3.17;0.90;;;;;;;6.75;82.06;98227.45;1706070;82;20958;-81
2022/04/10 06:20:36;;;;;;;2.98;0.85;;;;;;;6.70;81.57;98234.91;1699278;82;21023;-79
2022/04/10 06:23:04;;;;;;;1.00;0.82;;;;;;;6.69;81.94;98240.52;1705765;84;21324;-79
2022/04/10 06:25:33;;;;;;;1.02;0.70;;;;;;;6.68;81.60;98237.97;1704519;82;21037;-78
2022/04/10 06:28:00;;;;;;;1.75;0.72;;;;;;;6.61;80.92;98248.89;1684858;84;20987;-78
2022/04/10 06:30:28;;;;;;;1.40;0.78;;;;;;;6.53;80.95;98252.93;1704005;83;21066;-78
2022/04/10 06:32:56;;;;;;;3.98;1.10;;;;;;;6.43;80.87;98258.34;1704445;82;21065;-80
2022/04/10 06:35:24;;;;;;;0.98;0.80;;;;;;;6.32;80.99;98263.72;1703642;83;21030;-79
2022/04/10 06:37:52;;;;;;;2.00;0.90;;;;;;;6.30;81.02;98257.30;1704924;83;21022;-79
2022/04/10 06:40:19;;;;;;;1.65;0.88;;;;;;;6.28;82.12;98269.38;1727744;81;21033;-79
2022/04/10 06:42:46;;;;;;;2.25;1.05;;;;;;;6.25;82.43;98273.34;1730352;81;21013;-78
2022/04/10 06:45:20;;;;;;;1.98;1.00;;;;;;;6.19;82.97;98272.17;1722515;81;21038;-78
2022/04/10 06:47:56;;;;;;;3.45;1.25;;;;;;;6.16;82.38;98271.77;1729639;81;21016;-79
2022/04/10 06:50:25;;;;;;;2.08;0.98;;;;;;;6.07;82.42;98285.30;1732160;81;21095;-79
2022/04/10 06:52:53;;;;;;;1.17;0.80;;;;;;;6.08;83.73;98291.73;1741669;82;21537;-79
2022/04/10 06:55:20;;;;;;;0.93;0.60;;;;;;;6.02;82.92;98287.98;1730597;81;20986;-80
2022/04/10 06:57:47;;;;;;;0.75;0.60;;;;;;;5.98;82.62;98297.95;1732561;81;20993;-80
2022/04/10 07:00:15;;;;;;;0.55;0.40;;;;;;;5.92;82.69;98308.36;1732727;81;21009;-82
2022/04/10 07:02:43;;;;;;;2.70;1.95;;;;;;;5.82;83.24;98314.58;1702955;82;21020;-80
2022/04/10 07:05:10;;;;;;;1.80;0.85;;;;;;;5.78;82.91;98314.62;1728678;81;21036;-79
2022/04/10 07:07:39;;;;;;;1.57;0.85;;;;;;;5.67;83.98;98309.23;1742893;81;21133;-81
2022/04/10 07:10:06;;;;;;;3.42;1.22;;;;;;;5.60;84.42;98309.80;1728427;82;21001;-80
2022/04/10 07:12:33;;;;;;;1.60;0.95;;;;;;;5.57;83.69;98312.42;1728747;81;21064;-80
2022/04/10 07:15:01;;;;;;;2.80;0.93;;;;;;;5.54;83.07;98330.53;1700250;82;21315;-81
2022/04/10 07:17:29;;;;;;;1.70;0.90;;;;;;;5.46;83.12;98332.40;1728781;81;21312;-81
2022/04/10 07:19:58;;;;;;;3.55;1.17;;;;;;;5.37;83.43;98327.81;1728592;81;21089;-80
2022/04/10 07:25:10;;;;;;;3.22;1.40;;;;;;;5.36;84.45;98328.67;1728762;81;20985;-79
2022/04/10 07:27:38;;;;;;;2.35;1.27;;;;;;;5.32;83.81;98333.47;1727453;81;21013;-80
2022/04/10 07:30:19;;;;;;;1.92;1.15;;;;;;;5.30;83.69;98331.80;1727745;81;21047;-78
2022/04/10 07:32:57;;;;;;;3.47;1.20;;;;;;;5.25;83.72;98342.19;1700184;82;21098;-80
2022/04/10 07:35:26;;;;;;;1.95;1.00;;;;;;;5.21;84.19;98343.08;1728877;81;21021;-79
2022/04/10 07:37:54;;;;;;;2.83;1.45;;;;;;;5.15;84.35;98350.50;1727684;81;21033;-80
2022/04/10 07:40:22;;;;;;;1.95;1.10;;;;;;;5.16;84.58;98351.34;1723873;81;20992;-80
2022/04/10 07:42:49;;;;;;;4.55;1.12;;;;;;;5.03;84.22;98358.83;1720177;81;21053;-80
2022/04/10 07:47:51;;;;;;;2.50;1.45;;;;;;;4.88;84.95;98360.75;1680308;84;21030;-79
2022/04/10 07:50:18;;;;;;;2.75;1.32;;;;;;;4.83;85.87;98359.95;1693197;82;21342;-78
2022/04/10 07:52:47;;;;;;;1.42;0.80;;;;;;;4.84;85.17;98360.38;1713913;81;21121;-79
2022/04/10 07:55:15;;;;;;;1.87;1.07;;;;;;;4.77;85.71;98361.33;1711667;81;21042;-79
2022/04/10 07:57:44;;;;;;;1.90;1.15;;;;;;;4.80;84.74;98360.02;1715635;82;20986;-80
2022/04/10 08:00:13;;;;;;;1.60;0.93;;;;;;;4.77;85.51;98367.77;1714118;81;21542;-79
2022/04/10 08:02:46;;;;;;;2.83;1.10;;;;;;;4.83;85.17;98376.69;1715180;82;20985;-78
2022/04/10 08:05:18;;;;;;;1.30;0.88;;;;;;;4.78;86.15;98375.92;1712955;82;21152;-81
2022/04/10 08:07:49;;;;;;;0.80;0.80;;;;;;;4.81;85.60;98382.74;1709594;82;21009;-80
2022/04/10 08:10:16;;;;;;;1.87;1.05;;;;;;;4.88;85.40;98384.38;1715458;81;21569;-80
2022/04/10 08:12:44;;;;;;;1.92;1.00;;;;;;;4.93;85.75;98381.28;1720939;81;21073;-80
2022/04/10 08:15:12;;;;;;;3.17;1.30;;;;;;;4.95;85.05;98379.54;1714168;81;21053;-80
2022/04/10 08:17:39;;;;;;;1.62;1.00;;;;;;;4.97;85.04;98384.23;1714678;81;21451;-79
2022/04/10 08:20:08;;;;;;;1.47;0.90;;;;;;;4.93;85.39;98380.00;1720245;82;21009;-81
2022/04/10 08:22:36;;;;;;;1.12;0.70;;;;;;;4.91;85.51;98377.44;1719277;82;21569;-80
2022/04/10 08:25:12;;;;;;;2.12;1.00;;;;;;;4.93;85.62;98378.71;1715185;82;21494;-79
2022/04/10 08:27:40;;;;;;;2.35;1.30;;;;;;;4.97;86.07;98387.69;1714030;82;21037;-78
2022/04/10 08:30:08;;;;;;;2.70;1.30;;;;;;;5.07;85.69;98390.11;1719595;81;21014;-79
2022/04/10 08:32:39;;;;;;;2.77;0.98;;;;;;;5.11;86.58;98397.80;1736341;80;20981;-79
2022/04/10 08:35:07;;;;;;;1.80;1.10;;;;;;;5.17;85.55;98396.83;1714777;82;20986;-78
2022/04/10 08:37:35;;;;;;;4.05;1.65;;;;;;;5.17;85.68;98393.84;1719453;82;21581;-81
2022/04/10 08:40:01;;;;;;;5.00;1.27;;;;;;;5.21;86.07;98401.51;1715568;81;21093;-81
2022/04/10 08:42:28;;;;;;;3.27;1.30;;;;;;;5.28;85.20;98396.69;1714361;81;21513;-81
2022/04/10 08:44:59;;;;;;;2.87;1.62;;;;;;;5.34;85.32;98406.91;1715602;82;21026;-81
2022/04/10 08:47:27;;;;;;;2.60;1.62;;;;;;;5.44;84.91;98397.31;1719433;81;21043;-78
2022/04/10 08:49:54;;;;;;;1.45;0.90;;;;;;;5.47;85.19;98408.44;1700955;83;21065;-79
2022/04/10 08:52:22;;;;;;;2.72;1.40;;;;;;;5.47;83.92;98407.55;1713866;81;21009;-81
2022/04/10 08:54:49;;;;;;;2.70;1.40;;;;;;;5.49;84.34;98413.54;1718480;82;21036;-80
2022/04/10 08:57:16;;;;;;;1.52;0.90;;;;;;;5.52;84.54;98416.09;1715493;81;21664;-81
2022/04/10 08:59:43;;;;;;;1.35;0.88;;;;;;;5.60;84.98;98417.26;1715022;81;20997;-80
2022/04/10 09:02:11;;;;;;;2.33;1.20;;;;;;;5.54;83.05;98425.94;1715574;81;21026;-80
2022/04/10 09:04:39;;;;;;;1.80;0.90;;;;;;;5.63;84.24;98429.67;1715196;82;21128;-80
2022/04/10 09:07:09;;;;;;;0.98;0.78;;;;;;;5.70;83.23;98436.41;1714874;82;21517;-78
2022/04/10 09:09:42;;;;;;;2.70;0.80;;;;;;;5.73;82.93;98430.34;1714572;82;21049;-78
2022/04/10 09:12:10;;;;;;;1.30;0.80;;;;;;;5.74;82.46;98430.78;1738980;81;21003;-79
2022/04/10 09:14:42;;;;;;;0.82;0.72;;;;;;;5.61;82.12;98435.70;1715636;81;21012;-80
2022/04/10 09:17:24;;;;;;;1.07;0.78;;;;;;;5.69;82.20;98445.45;1708551;81;21515;-80
2022/04/10 09:19:53;;;;;;;1.60;0.70;;;;;;;5.66;83.01;98443.79;1716324;82;21013;-80
2022/04/10 09:22:37;;;;;;;1.20;0.90;;;;;;;5.65;82.56;98435.66;1704656;81;20974;-80
2022/04/10 09:25:16;;;;;;;4.15;2.67;;;;;;;5.68;83.17;98438.16;1714555;81;20990;-80
2022/04/10 09:27:49;;;;;;;2.70;1.22;;;;;;;5.71;82.86;98432.97;1705887;82;21037;-80
2022/04/10 09:30:20;;;;;;;2.98;1.15;;;;;;;5.85;82.58;98429.30;1714608;82;21526;-81
2022/04/10 09:32:51;;;;;;;2.70;1.10;;;;;;;5.88;83.60;98426.23;1717179;82;21034;-81
2022/04/10 09:35:23;;;;;;;1.35;0.93;;;;;;;6.03;83.04;98421.30;1719347;81;21049;-78
2022/04/10 09:37:58;;;;;;;0.62;0.60;;;;;;;6.15;82.74;98415.91;1718784;82;20997;-80
2022/04/10 09:40:34;;;;;;;2.80;1.20;;;;;;;6.29;81.81;98425.14;1715488;82;21032;-81
2022/04/10 09:43:10;;;;;;;2.15;1.10;;;;;;;6.31;82.04;98426.80;1714794;81;21018;-81
2022/04/10 09:45:41;;;;;;;3.65;1.67;;;;;;;6.43;81.67;98423.59;1715072;81;21122;-79
2022/04/10 09:48:29;;;;;;;;;;;;;;;6.44;81.07;98427.41;1719987;83;21498;-79
2022/04/10 09:51:02;;;;;;;2.92;1.85;;;;;;;6.47;81.12;98429.95;1744870;81;20452;-76
2022/04/10 09:53:32;;;;;;;1.12;0.80;;;;;;;6.43;80.65;98442.96;1721228;81;21478;-79
2022/04/10 09:56:02;;;;;;;2.65;1.45;;;;;;;6.41;79.84;98439.11;1740845;81;21045;-77
2022/04/10 09:58:30;;;;;;;4.12;1.10;;;;;;;6.42;80.28;98438.21;1729358;81;21370;-78
2022/04/10 10:00:58;;;;;;;3.20;1.35;;;;;;;6.46;81.06;98435.98;1742487;82;21312;-79
2022/04/10 10:03:28;;;;;;;6.37;3.30;;;;;;;6.55;81.05;98433.23;1716324;82;21041;-77
2022/04/10 10:05:56;;;;;;;6.33;2.90;;;;;;;6.71;80.38;98434.23;1713897;81;21013;-79
2022/04/10 10:08:27;;;;;;;6.37;2.50;;;;;;;6.75;80.63;98434.58;1714775;82;21082;-79
2022/04/10 10:10:56;;;;;;;4.40;1.70;;;;;;;7.01;80.18;98439.20;1719340;82;21021;-78
2022/04/10 10:13:26;;;;;;;3.22;1.15;;;;;;;7.05;80.44;98442.58;1714823;82;20990;-79
2022/04/10 10:15:55;;;;;;;2.62;1.45;;;;;;;7.18;79.90;98433.66;1715911;80;20998;-79
2022/04/10 10:18:25;;;;;;;3.65;1.80;;;;;;;7.28;79.83;98440.34;1716144;81;20970;-79
2022/04/10 10:20:52;;;;;;;3.72;1.65;;;;;;;7.41;78.68;98441.36;1715890;82;21473;-78
2022/04/10 10:23:20;;;;;;;2.45;1.50;;;;;;;7.41;79.62;98446.53;1715234;82;21455;-77
2022/04/10 10:26:18;;;;;;;4.53;1.90;;;;;;;7.50;79.99;98442.42;1715229;82;21466;-79
2022/04/10 10:29:11;;;;;;;2.60;1.60;;;;;;;7.64;79.15;98445.98;1714793;82;21077;-79
2022/04/10 10:31:52;;;;;;;4.80;1.60;;;;;;;7.55;77.89;98454.81;1714161;81;21009;-79
2022/04/10 10:34:22;;;;;;;3.80;1.57;;;;;;;7.49;78.06;98467.44;1706376;81;21534;-79
2022/04/10 10:36:49;;;;;;;2.72;1.35;;;;;;;7.41;77.89;98460.30;1719692;82;21565;-79
2022/04/10 10:39:15;;;;;;;2.12;1.30;;;;;;;7.37;77.93;98465.14;1715211;81;21049;-79
2022/04/10 10:41:43;;;;;;;2.10;1.20;;;;;;;7.29;77.78;98461.87;1715893;82;21529;-78
2022/04/10 10:44:31;;;;;;;1.92;1.15;;;;;;;7.36;78.31;98465.59;1715860;82;21505;-79
2022/04/10 10:47:02;;;;;;;2.25;1.22;;;;;;;7.52;78.62;98461.34;1718015;82;21517;-79
2022/04/10 10:49:34;;;;;;;3.40;1.37;;;;;;;7.60;78.31;98455.58;1737028;82;21072;-79
2022/04/10 10:52:10;;;;;;;3.42;1.20;;;;;;;7.68;78.79;98452.78;1693661;82;21041;-78
2022/04/10 10:54:45;;;;;;;3.37;1.77;;;;;;;7.85;78.72;98449.80;1730802;82;21076;-78
2022/04/10 10:57:43;;;;;;;6.97;2.10;;;;;;;7.92;77.73;98462.56;1713106;82;20994;-79
2022/04/10 11:00:20;;;;;;;4.55;2.00;;;;;;;7.99;77.10;98468.42;1724553;82;21014;-78
2022/04/10 11:02:50;;;;;;;5.58;2.20;;;;;;;8.03;77.14;98479.11;1713764;82;21072;-79
2022/04/10 11:05:33;;;;;;;4.20;1.92;;;;;;;8.02;75.93;98473.55;1715834;82;21100;-78
2022/04/10 11:08:09;;;;;;;5.95;2.00;;;;;;;7.81;75.82;98472.31;1706835;82;21021;-78
2022/04/10 11:11:02;;;;;;;5.22;2.02;;;;;;;7.75;76.36;98468.13;1716633;82;21052;-78
2022/04/10 11:13:42;;;;;;;3.87;1.55;;;;;;;7.80;76.43;98463.28;1722287;82;21054;-79
2022/04/10 11:16:12;;;;;;;6.28;2.50;;;;;;;7.71;75.87;98469.09;1716516;82;21036;-79
2022/04/10 11:18:50;;;;;;;4.50;1.75;;;;;;;7.66;76.26;98469.66;1718651;82;21014;-78
2022/04/10 11:21:21;;;;;;;3.30;1.52;;;;;;;7.72;76.14;98479.02;1714977;82;21526;-78
2022/04/10 11:23:48;;;;;;;3.02;1.45;;;;;;;7.74;75.63;98477.25;1714241;82;21018;-78
2022/04/10 11:26:19;;;;;;;3.47;1.40;;;;;;;7.71;76.03;98472.12;1716693;82;21013;-79
2022/04/10 11:29:07;;;;;;;3.83;1.35;;;;;;;7.72;75.60;98472.55;1714946;82;21002;-79
2022/04/10 11:31:41;;;;;;;5.42;2.22;;;;;;;7.71;76.59;98472.12;1719511;82;20986;-78
2022/04/10 11:34:28;;;;;;;5.30;1.75;;;;;;;7.83;75.63;98463.23;1709034;82;21029;-79
2022/04/10 11:36:59;;;;;;;3.45;1.90;;;;;;;7.96;76.25;98465.93;1715484;82;21045;-79
2022/04/10 11:39:33;;;;;;;3.47;2.10;;;;;;;8.03;76.20;98468.75;1690786;83;20994;-77
2022/04/10 11:42:05;;;;;;;3.47;1.50;;;;;;;8.22;76.51;98470.45;1728044;82;21004;-78
2022/04/10 11:44:32;;;;;;;4.12;1.90;;;;;;;8.30;75.22;98463.33;1704563;82;21064;-79
2022/04/10 11:47:08;;;;;;;3.47;1.70;;;;;;;8.43;75.42;98472.10;1708278;82;21042;-79
2022/04/10 11:49:36;;;;;;;1.92;1.27;;;;;;;8.62;75.19;98476.36;1707192;82;21042;-78
2022/04/10 11:52:04;;;;;;;2.95;1.60;;;;;;;8.79;74.41;98479.77;1725169;82;21240;-79
2022/04/10 11:54:37;;;;;;;4.72;2.75;;;;;;;8.79;72.33;98487.55;1685077;83;21054;-79
2022/04/10 11:57:06;;;;;;;4.60;1.47;;;;;;;8.82;73.19;98494.80;1728114;82;21523;-79